createdAt,value
2017-09-23T00:00:38.090Z,92.90
2017-09-23T00:03:48.966Z,92.90
2017-09-23T00:06:59.309Z,93.00
2017-09-23T00:10:09.190Z,93.00
2017-09-23T00:13:19.929Z,92.80
2017-09-23T00:16:30.971Z,92.60
2017-09-23T00:19:42.140Z,92.40
2017-09-23T00:22:52.855Z,92.60
2017-09-23T00:26:03.612Z,92.50
2017-09-23T00:29:13.959Z,92.50
2017-09-23T00:32:24.025Z,92.60
2017-09-23T00:35:33.877Z,92.90
2017-09-23T00:38:43.780Z,93.00
2017-09-23T00:41:53.805Z,93.10
2017-09-23T00:45:04.314Z,93.20
2017-09-23T00:48:14.645Z,93.20
2017-09-23T00:51:25.794Z,93.10
2017-09-23T00:54:36.828Z,93.00
2017-09-23T00:57:48.037Z,93.20
2017-09-23T01:00:58.118Z,93.20
2017-09-23T01:04:08.788Z,93.20
2017-09-23T01:07:18.823Z,93.40
2017-09-23T01:10:28.366Z,93.40
2017-09-23T01:13:38.693Z,93.40
2017-09-23T01:16:49.456Z,93.60
2017-09-23T01:19:59.414Z,94.00
2017-09-23T01:23:09.019Z,94.20
2017-09-23T01:26:19.768Z,94.20
2017-09-23T01:29:30.479Z,94.40
2017-09-23T01:32:40.424Z,94.20
2017-09-23T01:35:50.330Z,94.50
2017-09-23T01:39:01.096Z,94.50
2017-09-23T01:42:11.043Z,94.50
2017-09-23T01:45:21.193Z,94.20
2017-09-23T01:48:31.100Z,94.20
2017-09-23T01:51:41.121Z,93.90
2017-09-23T01:54:50.984Z,94.10
2017-09-23T01:58:00.999Z,94.30
2017-09-23T02:01:10.892Z,94.20
2017-09-23T02:04:20.811Z,94.20
2017-09-23T02:07:32.346Z,94.00
2017-09-23T02:10:43.059Z,94.00
2017-09-23T02:13:53.810Z,94.00
2017-09-23T02:17:03.756Z,93.60
2017-09-23T02:20:13.590Z,93.70
2017-09-23T02:23:23.737Z,93.80
2017-09-23T02:26:34.427Z,93.80
2017-09-23T02:29:44.228Z,93.90
2017-09-23T02:32:54.305Z,93.90
2017-09-23T02:36:04.184Z,93.60
2017-09-23T02:39:14.142Z,93.50
2017-09-23T02:42:24.907Z,93.70
2017-09-23T02:45:34.971Z,93.70
2017-09-23T02:48:45.164Z,93.70
2017-09-23T02:51:55.014Z,93.60
2017-09-23T02:55:05.255Z,93.50
2017-09-23T02:58:16.010Z,93.80
2017-09-23T03:01:26.373Z,94.20
2017-09-23T03:04:37.328Z,93.90
2017-09-23T03:07:47.318Z,93.90
2017-09-23T03:10:57.259Z,93.80
2017-09-23T03:14:07.399Z,93.90
2017-09-23T03:17:17.437Z,93.80
2017-09-23T03:20:27.263Z,93.80
2017-09-23T03:23:37.171Z,93.90
2017-09-23T03:30:12.578Z,93.60
2017-09-23T03:33:22.581Z,93.80
2017-09-23T03:36:33.410Z,93.90
2017-09-23T03:39:43.408Z,93.90
2017-09-23T03:42:54.850Z,93.70
2017-09-23T03:46:04.929Z,93.70
2017-09-23T03:49:15.734Z,93.50
2017-09-23T03:52:25.614Z,93.60
2017-09-23T03:55:37.280Z,94.00
2017-09-23T03:58:47.628Z,93.90
2017-09-23T04:01:57.675Z,93.90
2017-09-23T04:05:07.708Z,94.20
2017-09-23T04:08:17.662Z,94.20
2017-09-23T04:11:27.893Z,94.20
2017-09-23T04:14:37.865Z,94.20
2017-09-23T04:17:47.716Z,94.10
2017-09-23T04:20:57.480Z,94.20
2017-09-23T04:24:09.054Z,93.90
2017-09-23T04:27:19.060Z,94.20
2017-09-23T04:30:28.868Z,94.30
2017-09-23T04:33:38.720Z,94.40
2017-09-23T04:36:48.727Z,94.20
2017-09-23T04:39:58.696Z,94.30
2017-09-23T04:43:08.659Z,94.20
2017-09-23T04:46:19.509Z,94.20
2017-09-23T04:49:29.410Z,94.20
2017-09-23T04:52:39.258Z,94.10
2017-09-23T04:55:49.201Z,94.00
2017-09-23T04:58:59.847Z,94.00
2017-09-23T05:02:11.362Z,94.10
2017-09-23T05:05:22.557Z,94.00
2017-09-23T05:08:32.583Z,94.20
2017-09-23T05:11:42.565Z,94.20
2017-09-23T05:14:52.800Z,94.10
2017-09-23T05:18:03.622Z,94.20
2017-09-23T05:21:13.779Z,94.40
2017-09-23T05:24:25.268Z,95.00
2017-09-23T05:27:35.783Z,95.00
2017-09-23T05:30:45.691Z,94.90
2017-09-23T05:33:55.568Z,94.90
2017-09-23T05:37:06.224Z,95.00
2017-09-23T05:40:17.136Z,95.10
2017-09-23T05:43:27.831Z,95.20
2017-09-23T05:46:38.074Z,95.60
2017-09-23T05:49:48.791Z,95.60
2017-09-23T05:53:02.298Z,95.90
2017-09-23T05:56:12.566Z,96.00
2017-09-23T05:59:22.684Z,95.90
2017-09-23T06:02:33.450Z,95.80
2017-09-23T06:05:43.362Z,95.70
2017-09-23T06:08:54.103Z,95.80
2017-09-23T06:12:04.031Z,95.70
2017-09-23T06:15:14.722Z,95.80
2017-09-23T06:18:26.489Z,95.70
2017-09-23T06:21:37.274Z,95.60
2017-09-23T06:24:48.102Z,96.00
2017-09-23T06:27:58.320Z,96.00
2017-09-23T06:31:08.605Z,95.70
2017-09-23T06:34:19.333Z,96.30
2017-09-23T06:37:29.829Z,96.10
2017-09-23T06:40:40.740Z,96.30
2017-09-23T06:43:50.968Z,95.60
2017-09-23T06:47:01.756Z,95.60
2017-09-23T06:50:12.072Z,95.60
2017-09-23T06:53:22.258Z,95.60
2017-09-23T06:56:33.030Z,95.50
2017-09-23T06:59:43.927Z,95.40
2017-09-23T07:02:53.939Z,95.40
2017-09-23T07:06:04.831Z,95.40
2017-09-23T07:09:14.787Z,95.40
2017-09-23T07:12:25.062Z,95.50
2017-09-23T07:15:35.931Z,95.20
2017-09-23T07:18:47.931Z,95.40
2017-09-23T07:21:59.917Z,94.50
2017-09-23T07:25:12.245Z,94.80
2017-09-23T07:28:22.646Z,94.80
2017-09-23T07:31:34.152Z,94.90
2017-09-23T07:34:44.501Z,94.90
2017-09-23T07:37:55.696Z,94.70
2017-09-23T07:41:05.576Z,94.80
2017-09-23T07:44:16.948Z,94.80
2017-09-23T07:47:26.881Z,94.60
2017-09-23T07:50:37.075Z,95.10
2017-09-23T07:53:49.031Z,95.10
2017-09-23T07:57:00.051Z,94.70
2017-09-23T08:00:11.194Z,94.70
2017-09-23T08:03:21.367Z,94.60
2017-09-23T08:10:07.730Z,94.80
2017-09-23T08:13:26.067Z,94.70
2017-09-23T08:16:36.672Z,94.90
2017-09-23T08:19:47.602Z,94.60
2017-09-23T08:22:57.589Z,94.90
2017-09-23T08:26:08.787Z,94.50
2017-09-23T08:29:18.725Z,93.70
2017-09-23T08:32:28.888Z,93.10
2017-09-23T08:35:40.411Z,92.00
2017-09-23T08:38:51.407Z,92.50
2017-09-23T08:42:02.944Z,92.50
2017-09-23T08:45:13.006Z,90.50
2017-09-23T08:48:25.447Z,91.30
2017-09-23T08:51:36.055Z,91.30
2017-09-23T08:54:46.922Z,91.30
2017-09-23T08:57:57.761Z,91.30
2017-09-23T09:01:19.856Z,90.70
2017-09-23T09:04:30.672Z,91.00
2017-09-23T09:07:40.678Z,90.10
2017-09-23T09:10:50.681Z,91.00
2017-09-23T09:14:00.769Z,90.70
2017-09-23T09:17:11.830Z,88.40
2017-09-23T09:20:22.554Z,87.10
2017-09-23T09:23:33.365Z,88.30
2017-09-23T09:26:43.332Z,88.30
2017-09-23T09:29:53.553Z,87.70
2017-09-23T09:33:03.577Z,89.00
2017-09-23T09:36:13.579Z,85.50
2017-09-23T09:39:24.444Z,86.70
2017-09-23T09:42:34.601Z,86.50
2017-09-23T09:45:52.994Z,85.00
2017-09-23T09:49:06.291Z,83.20
2017-09-23T09:55:45.314Z,83.30
2017-09-23T09:58:56.106Z,82.70
2017-09-23T10:02:06.495Z,82.70
2017-09-23T10:05:16.830Z,81.30
2017-09-23T10:08:27.294Z,82.60
2017-09-23T10:11:37.321Z,80.40
2017-09-23T10:14:48.490Z,78.40
2017-09-23T10:17:58.738Z,78.40
2017-09-23T10:21:08.831Z,79.30
2017-09-23T10:24:19.109Z,81.00
2017-09-23T10:27:29.269Z,78.50
2017-09-23T10:30:39.458Z,78.20
2017-09-23T10:33:49.676Z,77.20
2017-09-23T10:36:59.625Z,76.60
2017-09-23T10:40:10.020Z,78.30
2017-09-23T10:43:20.447Z,76.40
2017-09-23T10:46:30.541Z,74.50
2017-09-23T10:49:40.865Z,74.80
2017-09-23T10:52:51.071Z,76.10
2017-09-23T10:56:00.962Z,76.70
2017-09-23T10:59:11.631Z,74.80
2017-09-23T11:02:22.262Z,75.30
2017-09-23T11:05:32.569Z,73.50
2017-09-23T11:08:43.643Z,73.80
2017-09-23T11:11:53.916Z,74.50
2017-09-23T11:15:04.013Z,73.30
2017-09-23T11:18:15.000Z,72.40
2017-09-23T11:21:25.284Z,71.10
2017-09-23T11:24:35.368Z,71.80
2017-09-23T11:27:45.796Z,70.50
2017-09-23T11:30:55.835Z,70.90
2017-09-23T11:34:05.990Z,69.50
2017-09-23T11:37:16.814Z,69.50
2017-09-23T11:40:27.201Z,69.50
2017-09-23T12:28:03.929Z,69.40
2017-09-23T12:31:14.935Z,69.40
2017-09-23T12:34:25.133Z,68.80
2017-09-23T12:37:35.898Z,68.20
2017-09-23T12:40:46.142Z,66.70
2017-09-23T12:43:56.247Z,68.30
2017-09-23T12:47:06.526Z,67.20
2017-09-23T12:50:17.690Z,70.30
2017-09-23T12:53:28.709Z,70.30
2017-09-23T12:56:39.267Z,70.30
2017-09-23T12:59:49.331Z,70.20
2017-09-23T13:02:59.604Z,70.30
2017-09-23T13:06:09.699Z,69.60
2017-09-23T13:09:19.943Z,70.20
2017-09-23T13:12:29.935Z,70.40
2017-09-23T13:15:39.617Z,70.50
2017-09-23T13:18:50.405Z,70.80
2017-09-23T13:22:02.118Z,72.50
2017-09-23T13:25:15.664Z,72.70
2017-09-23T13:28:26.782Z,73.40
2017-09-23T13:31:38.129Z,71.90
2017-09-23T13:34:49.128Z,74.80
2017-09-23T13:38:00.307Z,72.30
2017-09-23T13:41:11.428Z,72.70
2017-09-23T13:44:22.996Z,70.20
2017-09-23T13:47:34.589Z,70.40
2017-09-23T13:50:45.377Z,69.30
2017-09-23T13:53:57.077Z,68.80
2017-09-23T13:57:08.315Z,68.50
2017-09-23T14:00:19.437Z,68.00
2017-09-23T14:03:31.157Z,67.40
2017-09-23T14:06:44.644Z,67.30
2017-09-23T14:09:56.324Z,65.50
2017-09-23T14:13:11.003Z,66.00
2017-09-23T14:16:22.420Z,65.40
2017-09-23T14:19:33.795Z,64.50
2017-09-23T14:22:45.962Z,66.00
2017-09-23T14:25:58.432Z,66.30
2017-09-23T14:29:09.543Z,67.20
2017-09-23T14:32:21.187Z,67.20
2017-09-23T14:35:32.153Z,67.20
2017-09-23T14:38:43.717Z,67.70
2017-09-23T14:41:56.353Z,67.70
2017-09-23T14:45:09.278Z,68.10
2017-09-23T14:48:20.249Z,68.10
2017-09-23T14:51:30.782Z,66.70
2017-09-23T14:54:42.726Z,67.40
2017-09-23T14:57:54.468Z,68.60
2017-09-23T15:01:05.804Z,69.50
2017-09-23T15:04:17.084Z,68.70
2017-09-23T15:07:28.143Z,68.10
2017-09-23T15:10:39.424Z,68.30
2017-09-23T15:13:51.589Z,69.10
2017-09-23T15:17:03.335Z,68.50
2017-09-23T15:20:14.626Z,67.10
2017-09-23T15:23:26.792Z,68.70
2017-09-23T15:26:38.236Z,67.70
2017-09-23T15:29:49.236Z,67.50
2017-09-23T15:33:01.179Z,69.30
2017-09-23T15:36:12.746Z,69.30
2017-09-23T15:39:23.295Z,71.10
2017-09-23T15:42:36.035Z,70.50
2017-09-23T15:45:47.010Z,70.40
2017-09-23T15:48:58.325Z,71.20
2017-09-23T15:52:10.582Z,71.10
2017-09-23T15:55:22.446Z,71.90
2017-09-23T15:58:33.418Z,72.50
2017-09-23T16:01:45.104Z,71.60
2017-09-23T16:04:56.836Z,72.10
2017-09-23T16:08:07.481Z,72.40
2017-09-23T16:11:19.129Z,73.90
2017-09-23T16:14:30.303Z,73.90
2017-09-23T16:17:41.218Z,73.70
2017-09-23T16:20:53.292Z,74.30
2017-09-23T16:24:04.735Z,74.50
2017-09-23T16:27:16.457Z,75.20
2017-09-23T16:30:27.337Z,75.60
2017-09-23T16:33:37.530Z,75.50
2017-09-23T16:36:47.623Z,75.50
2017-09-23T16:39:57.469Z,75.40
2017-09-23T16:43:07.551Z,75.00
2017-09-23T16:46:17.842Z,75.50
2017-09-23T16:49:28.460Z,76.40
2017-09-23T16:52:39.245Z,77.00
2017-09-23T16:55:49.358Z,77.50
2017-09-23T16:58:59.758Z,75.40
2017-09-23T17:02:11.346Z,75.70
2017-09-23T17:05:21.383Z,75.70
2017-09-23T17:08:31.303Z,76.20
2017-09-23T17:11:41.277Z,76.70
2017-09-23T17:14:51.598Z,77.90
2017-09-23T17:18:01.651Z,77.70
2017-09-23T17:21:11.839Z,79.20
2017-09-23T17:24:22.236Z,78.80
2017-09-23T17:27:32.485Z,79.40
2017-09-23T17:30:42.980Z,79.40
2017-09-23T17:33:53.028Z,78.90
2017-09-23T17:37:03.008Z,79.50
2017-09-23T17:40:12.993Z,79.40
2017-09-23T17:43:23.898Z,80.00
2017-09-23T17:46:34.282Z,79.90
2017-09-23T17:49:44.572Z,80.00
2017-09-23T17:52:54.260Z,80.40
2017-09-23T17:56:05.375Z,80.20
2017-09-23T17:59:15.871Z,80.20
2017-09-23T18:02:26.426Z,80.80
2017-09-23T18:05:36.942Z,80.70
2017-09-23T18:08:53.633Z,81.00
2017-09-23T18:12:07.388Z,80.80
2017-09-23T18:15:19.462Z,79.70
2017-09-23T18:18:32.056Z,81.20
2017-09-23T18:21:43.838Z,81.20
2017-09-23T18:24:54.555Z,81.30
2017-09-23T18:28:04.731Z,81.10
2017-09-23T18:31:14.559Z,82.00
2017-09-23T18:34:25.303Z,82.10
2017-09-23T18:37:35.203Z,82.70
2017-09-23T18:40:45.079Z,83.00
2017-09-23T18:43:57.479Z,83.20
2017-09-23T18:47:08.757Z,83.30
2017-09-23T18:50:20.201Z,83.30
2017-09-23T18:53:30.171Z,83.30
2017-09-23T18:56:41.059Z,83.80
2017-09-23T18:59:51.639Z,83.90
2017-09-23T19:03:02.734Z,84.40
2017-09-23T19:06:14.059Z,85.00
2017-09-23T19:09:24.411Z,85.00
2017-09-23T19:12:34.875Z,85.60
2017-09-23T19:15:45.508Z,86.00
2017-09-23T19:18:55.954Z,86.00
2017-09-23T19:22:06.483Z,85.40
2017-09-23T19:25:16.440Z,86.20
2017-09-23T19:28:26.598Z,86.70
2017-09-23T19:31:36.644Z,87.00
2017-09-23T19:34:47.327Z,87.30
2017-09-23T19:37:57.100Z,87.70
2017-09-23T19:41:08.446Z,87.80
2017-09-23T19:44:18.963Z,87.80
2017-09-23T19:47:29.721Z,88.00
2017-09-23T19:50:40.095Z,88.10
2017-09-23T19:53:51.287Z,88.40
2017-09-23T19:57:01.039Z,88.40
2017-09-23T20:00:11.821Z,88.80
2017-09-23T20:03:22.382Z,89.00
2017-09-23T20:06:32.543Z,88.80
2017-09-23T20:09:43.588Z,88.40
2017-09-23T20:12:53.479Z,88.70
2017-09-23T20:16:04.228Z,88.10
2017-09-23T20:19:15.004Z,88.40
2017-09-23T20:22:25.397Z,87.90
2017-09-23T20:25:35.658Z,88.10
2017-09-23T20:28:45.457Z,88.30
2017-09-23T20:31:56.246Z,88.30
2017-09-23T20:35:06.220Z,88.50
2017-09-23T20:38:16.934Z,87.80
2017-09-23T20:41:27.297Z,88.70
2017-09-23T20:44:37.801Z,89.50
2017-09-23T20:47:48.595Z,89.80
2017-09-23T20:50:58.970Z,89.80
2017-09-23T20:54:09.391Z,89.80
2017-09-23T21:08:06.100Z,89.80
2017-09-23T21:11:16.243Z,89.70
2017-09-23T21:14:27.440Z,89.50
2017-09-23T21:17:37.437Z,89.40
2017-09-23T21:20:47.267Z,89.30
2017-09-23T21:23:57.246Z,89.50
2017-09-23T21:27:07.143Z,89.80
2017-09-23T21:37:33.994Z,90.00
2017-09-23T21:40:44.726Z,90.00
2017-09-23T21:43:54.845Z,90.00
2017-09-23T21:47:05.295Z,90.20
2017-09-23T21:50:15.198Z,90.10
2017-09-23T21:53:26.384Z,90.30
2017-09-23T21:56:36.473Z,90.20
2017-09-23T21:59:46.517Z,90.30
2017-09-23T22:02:56.433Z,90.20
2017-09-23T22:06:06.846Z,90.40
2017-09-23T22:09:17.044Z,90.70
2017-09-23T22:12:27.852Z,91.20
2017-09-23T22:15:38.483Z,91.10
2017-09-23T22:18:50.872Z,91.30
2017-09-23T22:22:02.371Z,91.70
2017-09-23T22:25:13.596Z,91.40
2017-09-23T22:28:25.282Z,91.30
2017-09-23T22:31:36.688Z,91.30
2017-09-23T22:34:47.257Z,91.20
2017-09-23T22:37:58.493Z,91.20
2017-09-23T22:41:08.220Z,91.10
2017-09-23T22:44:19.413Z,91.10
2017-09-23T22:47:29.371Z,91.10
2017-09-23T22:50:39.240Z,91.20
2017-09-23T22:53:49.819Z,91.40
2017-09-23T22:57:00.219Z,91.20
2017-09-23T23:00:10.631Z,91.20
2017-09-23T23:03:20.848Z,91.40
2017-09-23T23:06:31.061Z,91.30
2017-09-23T23:09:40.999Z,91.20
2017-09-23T23:12:51.538Z,91.20
2017-09-23T23:16:02.721Z,91.60
2017-09-23T23:19:13.300Z,91.60
2017-09-23T23:22:23.467Z,91.60
2017-09-23T23:25:33.520Z,91.40
2017-09-23T23:28:44.016Z,91.30
2017-09-23T23:31:55.257Z,91.40
2017-09-23T23:35:05.789Z,91.30
2017-09-23T23:38:15.733Z,91.40
2017-09-23T23:41:26.264Z,92.10
2017-09-23T23:44:36.074Z,91.90
2017-09-23T23:47:46.146Z,91.80
2017-09-23T23:50:56.097Z,91.90
2017-09-23T23:54:06.808Z,91.80
2017-09-23T23:57:16.642Z,92.30
